Date,TemperatureHighF,TemperatureAvgF,TemperatureLowF,DewpointHighF,DewpointAvgF,DewpointLowF,HumidityHigh,HumidityAvg,HumidityLow,PressureMaxIn,PressureMinIn,WindSpeedMaxMPH,WindSpeedAvgMPH,GustSpeedMaxMPH,PrecipitationSumIn
2013-4-1,69.8,52.7,36.0,40.1,35.9,29.8,91,59,23,29.97,29.90,4,0,5,0.00
2013-4-2,64.8,54.9,46.0,45.9,42.1,39.4,84,64,43,30.07,29.96,6,1,10,0.00
2013-4-3,63.1,52.9,43.7,43.7,40.6,37.4,85,65,39,30.10,29.98,5,1,8,0.00
2013-4-4,55.9,48.0,39.7,50.0,43.2,36.5,96,84,60,29.99,29.72,4,0,15,0.16
2013-4-5,58.6,50.3,45.9,48.4,43.6,39.9,91,78,58,29.85,29.79,5,1,13,0.09
2013-4-6,55.9,49.0,44.8,43.9,38.9,31.8,94,70,44,29.85,29.78,11,1,11,0.09
2013-4-7,53.2,43.9,38.7,45.0,38.0,32.2,95,80,53,29.80,29.54,6,1,11,0.24
2013-4-8,48.0,40.8,32.5,36.0,32.3,27.3,89,73,50,30.26,29.76,7,1,13,0.00
2013-4-9,55.0,41.8,27.7,36.5,30.2,25.3,93,66,38,30.37,30.22,3,0,5,0.00
2013-4-10,59.7,50.1,42.3,49.1,37.7,33.1,91,63,44,30.22,29.77,7,1,16,0.13
2013-4-11,55.9,44.9,35.8,36.1,32.1,27.5,88,63,36,30.10,30.00,5,1,9,0.00
2013-4-12,56.7,42.7,32.5,37.8,32.3,27.9,95,70,36,30.10,29.60,5,0,8,0.11
2013-4-13,51.4,41.0,34.9,38.7,26.7,18.5,93,60,29,29.82,29.55,6,1,8,0.00
2013-4-14,47.7,38.1,31.8,32.0,29.5,24.4,89,72,46,29.96,29.83,3,0,7,0.00
2013-4-15,46.9,38.7,30.9,29.5,19.9,17.1,79,48,32,30.15,29.91,9,2,14,0.00
2013-4-16,47.5,36.4,23.7,19.8,16.2,12.7,74,47,26,30.39,30.15,9,2,13,0.00
2013-4-17,53.4,38.7,22.3,20.7,17.5,10.9,84,48,20,30.46,30.33,4,0,7,0.00
2013-4-18,55.8,46.1,34.5,36.7,28.4,17.4,68,50,41,30.35,30.16,4,1,7,0.00
2013-4-19,55.8,48.5,43.0,47.3,43.8,37.9,95,84,66,30.15,29.88,5,1,10,0.19
2013-4-20,60.6,50.0,39.4,42.4,36.4,30.0,89,63,38,30.07,29.93,9,1,10,0.00
2013-4-21,49.3,41.4,34.5,40.6,35.5,31.3,94,80,57,30.29,30.03,5,0,9,0.31
2013-4-22,52.0,40.8,29.7,32.9,23.7,16.5,93,55,26,30.52,30.30,9,1,11,0.00
2013-4-23,56.3,44.1,31.6,30.7,25.7,21.4,77,51,29,30.38,30.21,3,0,5,0.00
2013-4-24,63.1,47.9,29.1,35.6,29.7,26.2,91,54,29,30.30,29.96,3,0,7,0.00
2013-4-25,69.4,54.6,34.7,37.2,33.0,29.5,84,48,25,30.01,29.92,3,0,6,0.00
2013-4-26,73.6,60.7,45.0,45.0,37.8,30.0,71,45,25,30.12,30.01,3,0,6,0.00
2013-4-27,63.7,56.9,50.5,38.5,35.6,31.8,61,45,33,30.04,29.91,5,1,10,0.00
2013-4-28,61.7,53.7,44.8,41.4,35.7,27.3,77,53,32,30.04,29.81,4,1,12,0.00
2013-4-29,56.5,49.2,40.3,37.6,24.8,14.0,72,41,21,29.92,29.68,8,1,14,0.00
2013-4-30,50.2,40.8,32.7,28.9,24.1,19.2,73,53,29,30.35,29.93,6,0,8,0.00